Latest Weather Observations for Oakey

IDQ60801

Issued at 7:02 pm EST Wednesday 20 September 2017 (issued every 30 minutes, with the page automatically refreshed every 10 minutes)

About weather observations | Map of weather stations | Latest weather observations for QLD | Other Formats
Station Details ID: 041359 Name: OAKEY AERO Lat: -27.40 Lon: 151.74 Height: 405.69 m
Data from the previous 72 hours. | See also: Recent months at Oakey
Date/Time
EST
Temp
°C
App
Temp
°C
Dew
Point
°C
Rel
Hum
%
Delta-T
°C
Wind Press
QNH
hPa
Press
MSL
hPa
Rain since
9am
mm
Dir  Spd
km/h
Gust
km/h
Spd
kts
Gust
kts
20/06:30pm 19.9 13.6 -10.3 12 11.1 WSW 17 20 9 11 1016.9 1016.2 0.0
20/06:00pm 21.0 14.9 -7.5 14 11.2 WSW 17 19 9 10 1016.3 1015.5 0.0
20/05:30pm 23.8 17.6 -5.3 14 12.3 WSW 19 22 10 12 1015.9 1015.1 0.0
20/05:00pm 26.0 19.2 -5.6 12 13.5 WSW 22 30 12 16 1015.4 1014.7 0.0
20/04:30pm 26.7 19.4 -6.2 11 14.0 WSW 24 35 13 19 1015.1 1014.4 0.0
20/04:00pm 27.1 19.2 -4.7 12 13.9 WSW 28 37 15 20 1015.0 1014.3 0.0
20/03:30pm 27.7 21.0 -4.3 12 14.2 WSW 22 32 12 17 1014.9 1014.2 0.0
20/03:00pm 27.0 19.9 -4.8 12 13.9 WSW 24 39 13 21 1015.2 1014.5 0.0
20/02:30pm 27.2 20.8 -4.6 12 14.0 WSW 20 35 11 19 1015.4 1014.7 0.0
20/02:00pm 27.7 21.0 -4.3 12 14.2 WSW 22 37 12 20 1015.9 1015.1 0.0
20/01:30pm 27.5 21.3 -3.3 13 13.9 W 20 37 11 20 1016.3 1015.5 0.0
20/01:00pm 26.8 20.9 -2.0 15 13.2 WSW 19 30 10 16 1016.9 1016.2 0.0
20/12:30pm 25.6 19.0 -2.9 15 12.7 WSW 22 35 12 19 1017.5 1016.8 0.0
20/12:00pm 25.9 19.4 -2.7 15 12.8 WSW 22 33 12 18 1018.0 1017.3 0.0
20/11:30am 25.5 19.5 -3.0 15 12.7 W 19 26 10 14 1018.5 1017.7 0.0
20/11:00am 24.9 19.3 -2.6 16 12.3 W 17 32 9 17 1019.0 1018.3 0.0
20/10:30am 23.9 19.9 0.3 21 11.1 WSW 11 17 6 9 1019.5 1018.8 0.0
20/10:00am 23.0 19.9 1.4 24 10.2 SW 7 13 4 7 1019.7 1019.0 0.0
20/09:30am 21.8 17.5 0.9 25 9.7 SSE 13 19 7 10 1019.9 1019.2 0.0
20/09:00am 20.2 15.1 0.6 27 8.9 S 17 22 9 12 1020.1 1019.4 0.0
20/08:30am 18.6 14.6 0.2 29 8.2 S 11 15 6 8 1020.1 1019.4 0.0
20/08:00am 16.3 13.1 -0.8 31 7.3 SE 6 11 3 6 1020.1 1019.4 0.0
20/07:30am 14.6 11.2 -0.3 36 6.4 E 7 9 4 5 1020.1 1019.4 0.0
20/07:00am 11.7 8.8 1.6 50 4.4 E 6 9 3 5 1020.0 1019.3 0.0
20/06:30am 8.3 5.1 0.8 59 3.1 NE 7 9 4 5 1019.7 1019.0 0.0
20/06:00am 6.0 3.5 -0.9 61 2.7 NE 2 6 1 3 1019.4 1018.7 0.0
20/05:30am 6.9 4.1 -0.1 61 2.8 ESE 4 7 2 4 1018.9 1018.1 0.0
20/05:00am 6.7 3.7 1.0 67 2.3 SE 6 7 3 4 1018.6 1017.8 0.0
20/04:30am 7.2 4.2 1.1 65 2.5 ESE 6 9 3 5 1018.4 1017.6 0.0
20/04:00am 8.6 6.7 0.8 58 3.2 CALM 0 0 0 0 1018.0 1017.3 0.0
20/03:30am 9.3 6.5 -0.3 51 3.9 WNW 4 6 2 3 1018.3 1017.5 0.0
20/03:00am 9.7 7.3 -0.2 50 4.0 E 2 7 1 4 1018.4 1017.6 0.0
20/02:30am 12.5 9.3 0.6 44 5.1 SW 7 11 4 6 1018.3 1017.5 0.0
20/02:00am 11.5 8.2 0.0 45 4.8 WNW 7 9 4 5 1018.0 1017.3 0.0
20/01:30am 13.5 11.0 1.5 44 5.3 NE 4 9 2 5 1018.2 1017.4 0.0
20/01:00am 12.5 10.2 0.3 43 5.2 ESE 2 7 1 4 1018.0 1017.3 0.0
20/12:30am 14.5 11.4 0.0 37 6.2 NW 6 13 3 7 1018.0 1017.3 0.0
20/12:00am 16.7 13.6 1.2 35 7.0 NW 7 13 4 7 1017.9 1017.2 0.0
 
Date/Time
EST
Temp
°C
App
Temp
°C
Dew
Point
°C
Rel
Hum
%
Delta-T
°C
Wind Press
QNH
hPa
Press
MSL
hPa
Rain since
9am
mm
Dir  Spd
km/h
Gust
km/h
Spd
kts
Gust
kts
19/11:30pm 15.6 11.7 1.0 37 6.5 NNW 11 13 6 7 1018.2 1017.4 0.0
19/11:00pm 16.5 13.0 1.4 36 6.8 WNW 9 13 5 7 1017.9 1017.2 0.0
19/10:30pm 18.1 15.4 2.8 36 7.2 WNW 6 11 3 6 1018.0 1017.3 0.0
19/10:00pm 18.4 14.8 2.7 35 7.4 WNW 11 13 6 7 1017.8 1017.1 0.0
19/09:30pm 19.2 16.1 3.4 35 7.6 WNW 9 11 5 6 1017.7 1017.0 0.0
19/09:00pm 20.8 17.8 4.0 33 8.2 WSW 9 15 5 8 1017.8 1017.1 0.0
19/08:30pm 19.8 16.8 3.9 35 7.7 N 9 13 5 7 1017.4 1016.7 0.0
19/08:00pm 21.6 18.6 4.2 32 8.6 NNW 9 11 5 6 1017.4 1016.7 0.0
19/07:30pm 21.9 17.7 4.0 31 8.9 NNW 15 17 8 9 1017.2 1016.5 0.0
19/07:00pm 23.1 18.9 3.6 28 9.6 NNW 15 19 8 10 1017.1 1016.4 0.0
19/06:30pm 23.3 19.8 3.3 27 9.9 NW 11 13 6 7 1016.8 1016.0 0.0
19/06:00pm 24.5 21.3 3.2 25 10.6 WNW 9 13 5 7 1016.3 1015.5 0.0
19/05:30pm 25.8 21.8 3.1 23 11.3 NW 13 17 7 9 1016.7 1015.9 0.0
19/05:00pm 27.2 22.6 3.7 22 12.0 NW 17 20 9 11 1016.5 1015.7 0.0
19/04:30pm 27.5 22.4 3.2 21 12.3 WNW 19 32 10 17 1016.2 1015.4 0.0
19/04:00pm 27.6 21.2 3.3 21 12.3 WNW 26 35 14 19 1016.2 1015.4 0.0
19/03:30pm 28.1 22.8 3.0 20 12.7 WNW 20 30 11 16 1016.3 1015.5 0.0
19/03:00pm 28.0 22.9 4.3 22 12.3 WNW 20 32 11 17 1016.7 1015.9 0.0
19/02:30pm 28.5 23.6 4.1 21 12.6 WNW 19 32 10 17 1017.2 1016.5 0.0
19/02:00pm 28.2 23.2 4.5 22 12.3 W 20 35 11 19 1017.9 1017.2 0.0
19/01:30pm 27.7 22.5 5.3 24 11.8 WNW 22 32 12 17 1018.5 1017.7 0.0
19/01:00pm 27.3 21.5 6.1 26 11.3 W 26 37 14 20 1019.1 1018.4 0.0
19/12:30pm 26.8 22.3 6.8 28 10.7 WNW 20 28 11 15 1019.6 1018.9 0.0
19/12:00pm 25.7 21.3 7.3 31 9.9 W 20 30 11 16 1020.1 1019.4 0.0
19/11:30am 25.2 20.9 7.8 33 9.4 WNW 20 28 11 15 1020.9 1020.1 0.0
19/11:00am 24.8 19.6 7.4 33 9.3 NW 24 32 13 17 1021.5 1020.8 0.0
19/10:30am 22.4 18.7 7.8 39 7.8 NNW 17 24 9 13 1021.7 1021.0 0.0
19/10:00am 21.7 17.5 8.2 42 7.2 NNW 20 26 11 14 1022.5 1021.8 0.0
19/09:30am 21.3 17.2 8.6 44 6.8 NNW 20 28 11 15 1022.6 1021.9 0.0
19/09:00am 19.2 18.0 9.7 54 5.1 N 6 13 3 7 1023.0 1022.3 0.0
19/08:30am 17.9 17.3 10.3 61 4.1 ENE 4 7 2 4 1023.4 1022.7 0.0
19/08:00am 15.4 14.9 9.5 68 3.1 WNW 2 7 1 4 1023.5 1022.8 0.0
19/07:30am 13.5 13.3 9.2 75 2.2 CALM 0 0 0 0 1023.4 1022.7 0.0
19/07:00am 11.1 10.7 8.3 83 1.4 CALM 0 0 0 0 1022.9 1022.2 0.0
19/06:30am 9.6 8.8 8.0 90 0.8 ENE 2 6 1 3 1022.5 1021.8 0.0
19/06:00am 7.9 5.3 5.9 87 0.9 ESE 9 11 5 6 1022.2 1021.5 0.0
19/05:30am 7.8 5.1 5.6 86 1.0 SE 9 9 5 5 1022.0 1021.3 0.0
19/05:00am 9.2 7.2 7.2 87 1.0 SE 7 9 4 5 1021.9 1021.2 0.0
19/04:30am 9.0 6.9 6.6 85 1.1 SSE 7 7 4 4 1021.7 1021.0 0.0
19/04:00am 10.7 9.0 7.6 81 1.5 WSW 6 6 3 3 1021.7 1021.0 0.0
19/03:30am 11.8 10.1 8.3 79 1.8 NW 7 11 4 6 1021.6 1020.9 0.0
19/03:00am 12.5 10.3 7.8 73 2.3 ENE 9 13 5 7 1021.3 1020.6 0.0
19/02:30am 13.1 10.2 8.2 72 2.5 E 13 19 7 10 1021.4 1020.7 0.0
19/02:00am 14.0 10.4 8.2 68 2.9 ENE 17 22 9 12 1021.8 1021.1 0.0
19/01:30am 13.5 10.3 8.4 71 2.6 ENE 15 19 8 10 1022.3 1021.6 0.0
19/01:00am 13.9 10.8 8.9 72 2.6 NE 15 17 8 9 1022.6 1021.9 0.0
19/12:30am 13.9 10.5 9.3 74 2.4 ENE 17 19 9 10 1022.8 1022.1 0.0
19/12:00am 12.9 10.2 8.8 76 2.1 E 13 13 7 7 1023.0 1022.3 0.0
 
Date/Time
EST
Temp
°C
App
Temp
°C
Dew
Point
°C
Rel
Hum
%
Delta-T
°C
Wind Press
QNH
hPa
Press
MSL
hPa
Rain since
9am
mm
Dir  Spd
km/h
Gust
km/h
Spd
kts
Gust
kts
18/11:30pm 13.3 11.5 8.0 70 2.7 ENE 7 9 4 5 1023.1 1022.4 0.0
18/11:00pm 15.5 12.2 9.4 67 3.2 ENE 17 20 9 11 1023.4 1022.7 0.0
18/10:30pm 15.7 12.8 9.6 67 3.2 ENE 15 20 8 11 1023.2 1022.6 0.0
18/10:00pm 15.3 12.6 9.0 66 3.3 E 13 17 7 9 1023.4 1022.7 0.0
18/09:30pm 16.5 13.1 9.0 61 3.9 ENE 17 22 9 12 1023.7 1023.0 0.0
18/09:00pm 17.1 13.7 9.3 60 4.1 ENE 17 22 9 12 1023.7 1023.0 0.0
18/08:30pm 17.9 14.5 9.0 56 4.7 NE 17 28 9 15 1023.5 1022.8 0.0
18/08:00pm 18.2 13.7 7.0 48 5.7 ENE 20 26 11 14 1023.1 1022.4 0.0
18/07:30pm 19.3 15.2 6.1 42 6.7 ENE 17 28 9 15 1022.6 1021.9 0.0
18/07:00pm 18.2 14.6 5.1 42 6.4 E 13 15 7 8 1022.2 1021.5 0.0
18/06:30pm 19.5 15.6 5.2 39 7.1 E 15 19 8 10 1022.0 1021.3 0.0
18/06:00pm 21.4 16.7 5.3 35 8.1 ENE 19 20 10 11 1021.8 1021.1 0.0
18/05:30pm 22.7 19.0 4.2 30 9.2 ENE 13 17 7 9 1021.6 1020.9 0.0
18/05:00pm 23.9 21.0 4.8 29 9.7 NE 9 19 5 10 1021.5 1020.8 0.0
18/04:30pm 24.0 21.1 4.9 29 9.7 NNE 9 15 5 8 1021.3 1020.6 0.0
18/04:00pm 24.8 22.3 4.5 27 10.3 NNW 7 15 4 8 1021.3 1020.6 0.0
18/03:30pm 24.5 21.2 4.8 28 10.1 NNW 11 17 6 9 1021.4 1020.7 0.0
18/03:00pm 25.4 23.0 5.1 27 10.5 W 7 15 4 8 1021.6 1020.9 0.0
18/02:30pm 25.0 21.6 5.7 29 10.1 N 13 20 7 11 1022.0 1021.3 0.0
18/02:00pm 23.5 20.0 5.4 31 9.3 ENE 13 24 7 13 1022.3 1021.6 0.0
18/01:30pm 24.5 21.1 5.8 30 9.7 N 13 24 7 13 1022.8 1022.1 0.0
18/01:00pm 23.5 20.2 6.3 33 8.9 NNE 13 22 7 12 1023.1 1022.4 0.0
18/12:30pm 22.9 19.0 7.1 36 8.3 NNE 17 28 9 15 1023.9 1023.2 0.0
18/12:00pm 22.2 18.6 6.8 37 8.0 NE 15 26 8 14 1024.4 1023.7 0.0
18/11:30am 21.8 17.8 8.3 42 7.2 NE 19 30 10 16 1025.0 1024.3 0.0
18/11:00am 21.7 17.8 8.6 43 7.0 NE 19 32 10 17 1025.6 1025.0 0.0
18/10:30am 20.7 16.2 8.7 46 6.4 ENE 22 32 12 17 1026.2 1025.5 0.0
18/10:00am 20.6 16.3 9.2 48 6.1 ENE 22 32 12 17 1026.6 1025.9 0.0
18/09:30am 19.7 15.1 9.6 52 5.5 ENE 24 32 13 17 1026.9 1026.2 0.0
18/09:00am 18.9 13.8 10.7 59 4.5 ENE 28 35 15 19 1027.2 1026.5 0.0
18/08:30am 17.8 12.8 10.9 64 3.8 ENE 28 33 15 18 1027.3 1026.6 0.0
18/08:00am 16.8 11.9 11.3 70 3.0 ENE 28 37 15 20 1027.3 1026.6 0.0
18/07:30am 15.9 12.7 11.9 77 2.2 ENE 20 28 11 15 1027.2 1026.5 0.0
18/07:00am 14.4 11.3 11.6 83 1.5 E 19 24 10 13 1026.8 1026.1 0.0
18/06:30am 12.8 10.0 11.4 91 0.8 ENE 17 20 9 11 1026.7 1026.0 0.0
18/06:00am 11.1 8.3 10.0 93 0.6 ENE 15 17 8 9 1026.5 1025.8 0.0
18/05:30am 11.1 7.9 9.9 92 0.6 E 17 17 9 9 1026.2 1025.5 0.0
18/05:00am 11.9 9.1 10.1 89 0.9 ENE 15 19 8 10 1026.0 1025.3 0.0
18/04:30am 12.4 9.4 10.8 90 0.9 ENE 17 20 9 11 1025.7 1025.1 0.0
18/04:00am 11.0 8.5 9.6 91 0.7 ENE 13 15 7 8 1025.4 1024.8 0.0
18/03:30am 10.9 8.6 9.0 88 1.0 ENE 11 13 6 7 1025.2 1024.5 0.0
18/03:00am 11.5 8.9 9.4 87 1.1 ENE 13 15 7 8 1025.1 1024.4 0.0
18/02:30am 12.3 9.9 9.9 85 1.3 E 13 17 7 9 1025.1 1024.4 0.0
18/02:00am 12.5 10.1 9.9 84 1.4 E 13 15 7 8 1024.9 1024.2 0.0
18/01:30am 13.3 10.2 10.3 82 1.6 ENE 17 19 9 10 1025.3 1024.7 0.0
18/01:00am 13.8 10.5 10.8 82 1.6 ENE 19 22 10 12 1025.3 1024.7 0.0
18/12:30am 13.5 10.1 10.5 82 1.6 E 19 24 10 13 1025.4 1024.8 0.0
18/12:00am 14.1 9.8 10.9 81 1.7 ENE 24 30 13 16 1025.5 1024.9 0.0
 
Date/Time
EST
Temp
°C
App
Temp
°C
Dew
Point
°C
Rel
Hum
%
Delta-T
°C
Wind Press
QNH
hPa
Press
MSL
hPa
Rain since
9am
mm
Dir  Spd
km/h
Gust
km/h
Spd
kts
Gust
kts
17/11:30pm 14.2 9.9 10.8 80 1.8 ENE 24 30 13 16 1025.5 1024.9 0.0
17/11:00pm 14.0 10.4 10.6 80 1.8 ENE 20 26 11 14 1025.7 1025.1 0.0
17/10:30pm 13.8 10.7 10.2 79 1.9 ENE 17 20 9 11 1025.6 1025.0 0.0
17/10:00pm 14.7 10.8 10.9 78 2.0 ENE 22 30 12 16 1025.7 1025.1 0.0
17/09:30pm 15.0 10.7 10.8 76 2.3 ENE 24 30 13 16 1025.8 1025.2 0.0
17/09:00pm 15.4 11.0 10.4 72 2.7 ENE 24 32 13 17 1025.7 1025.1 0.0
17/08:30pm 16.1 11.6 10.2 68 3.2 ENE 24 30 13 16 1025.3 1024.7 0.0
17/08:00pm 16.7 12.8 9.6 63 3.8 ENE 20 28 11 15 1024.9 1024.2 0.0
17/07:30pm 17.8 12.6 8.9 56 4.7 ENE 26 32 14 17 1024.6 1023.9 0.0

Other Formats:

Comma delimited format used in spreadsheet applications
http://www.bom.gov.au/fwo/IDQ60801/IDQ60801.94552.axf

JavaScript Object Notation format (JSON) in row-major order
http://www.bom.gov.au/fwo/IDQ60801/IDQ60801.94552.json